Time;durP1;ratioP1;P1;durP2;ratioP2;P2;SDS_P1;SDS_P2;PMS_P1;PMS_P2;Temp;Humidity;BMP_temperature;BMP_pressure;BME280_temperature;BME280_humidity;BME280_pressure;Samples;Min_cycle;Max_cycle;Signal;HPM_P1;HPM_P2
2023/07/13 00:01:16;;;;;;;0.40;0.40;;;;;;;24.35;75.91;95640.34;5091204;28;20464;-53
2023/07/13 00:03:46;;;;;;;0.90;0.60;;;;;;;24.36;75.04;95644.66;5091627;28;20433;-53
2023/07/13 00:06:14;;;;;;;0.50;0.40;;;;;;;24.33;76.03;95638.00;5091508;28;20433;-53
2023/07/13 00:08:42;;;;;;;0.53;0.30;;;;;;;24.30;76.45;95648.72;5091248;28;21019;-53
2023/07/13 00:11:11;;;;;;;0.40;0.20;;;;;;;24.26;76.42;95639.75;5091160;28;20440;-53
2023/07/13 00:13:40;;;;;;;0.47;0.33;;;;;;;24.08;76.21;95635.78;5091317;28;20444;-53
2023/07/13 00:16:09;;;;;;;1.43;0.50;;;;;;;23.74;76.95;95616.28;5091106;28;20872;-53
2023/07/13 00:18:38;;;;;;;0.60;0.40;;;;;;;23.95;76.78;95643.16;5091642;28;20440;-53
2023/07/13 00:21:08;;;;;;;0.40;0.30;;;;;;;24.00;76.88;95640.19;5091004;28;20450;-54
2023/07/13 00:23:39;;;;;;;0.40;0.30;;;;;;;24.06;77.34;95648.84;5094422;28;20478;-53
2023/07/13 00:26:09;;;;;;;0.50;0.40;;;;;;;23.98;76.99;95640.50;5094686;28;20436;-53
2023/07/13 00:28:39;;;;;;;0.50;0.40;;;;;;;23.99;76.93;95642.09;5094214;28;20566;-54
2023/07/13 00:31:08;;;;;;;0.60;0.60;;;;;;;23.89;77.53;95644.53;5095001;28;20441;-53
2023/07/13 00:33:37;;;;;;;0.50;0.40;;;;;;;23.65;78.87;95645.44;5095066;28;20440;-53
2023/07/13 00:36:07;;;;;;;0.40;0.30;;;;;;;23.27;82.86;95647.75;5085149;28;20945;-53
2023/07/13 00:38:36;;;;;;;5.47;0.50;;;;;;;22.97;81.61;95585.03;5091595;28;20467;-53
2023/07/13 00:41:05;;;;;;;0.70;0.50;;;;;;;23.61;79.68;95633.69;5094455;28;20437;-53
2023/07/13 00:43:34;;;;;;;0.60;0.33;;;;;;;23.65;78.60;95636.50;5094710;28;20515;-53
2023/07/13 00:46:19;;;;;;;0.60;0.43;;;;;;;23.72;78.66;95639.41;5094746;28;20437;-53
2023/07/13 00:48:49;;;;;;;0.50;0.30;;;;;;;23.75;78.47;95636.81;5094471;28;20468;-53
2023/07/13 00:51:24;;;;;;;0.70;0.57;;;;;;;23.72;78.84;95634.00;5080816;28;20434;-53
2023/07/13 00:53:55;;;;;;;0.73;0.60;;;;;;;23.56;79.08;95625.81;5094660;28;20468;-54
2023/07/13 00:56:24;;;;;;;0.90;0.60;;;;;;;23.56;80.22;95638.56;5093855;28;20541;-53
2023/07/13 00:58:54;;;;;;;0.50;0.30;;;;;;;23.49;80.61;95639.16;5094349;28;20530;-53
2023/07/13 01:01:22;;;;;;;0.57;0.50;;;;;;;23.02;81.98;95586.75;5094320;28;20470;-53
2023/07/13 01:03:50;;;;;;;0.50;0.30;;;;;;;23.48;81.15;95634.84;5082989;28;20438;-53
2023/07/13 01:06:20;;;;;;;0.60;0.60;;;;;;;23.43;82.46;95637.81;5092448;28;20498;-53
2023/07/13 01:08:49;;;;;;;0.50;0.50;;;;;;;23.33;82.42;95638.25;5093732;28;20516;-54
2023/07/13 01:11:21;;;;;;;0.60;0.57;;;;;;;23.20;82.44;95615.06;5093635;28;20437;-54
2023/07/13 01:13:49;;;;;;;0.50;0.30;;;;;;;23.34;82.30;95637.13;5094124;28;20965;-54
2023/07/13 01:16:24;;;;;;;0.50;0.30;;;;;;;23.30;82.60;95636.25;5093854;28;20523;-54
2023/07/13 01:18:53;;;;;;;1.77;1.10;;;;;;;23.36;82.51;95646.53;5092714;28;20468;-54
2023/07/13 01:21:23;;;;;;;0.87;0.87;;;;;;;23.33;81.54;95639.03;5081415;28;20959;-54
2023/07/13 01:23:51;;;;;;;0.70;0.70;;;;;;;23.24;83.51;95643.03;5093676;28;20444;-54
2023/07/13 01:26:20;;;;;;;0.60;0.43;;;;;;;23.00;83.24;95640.34;5093762;28;20908;-54
2023/07/13 01:28:48;;;;;;;0.60;0.50;;;;;;;23.09;83.51;95646.44;5093385;28;20441;-54
2023/07/13 01:31:16;;;;;;;0.53;0.40;;;;;;;23.03;83.20;95626.16;5093615;28;20494;-54
2023/07/13 01:33:45;;;;;;;0.73;0.73;;;;;;;23.14;84.72;95646.19;5092678;28;21859;-55
2023/07/13 01:36:13;;;;;;;1.63;0.93;;;;;;;23.16;83.81;95649.34;5093874;28;20441;-55
2023/07/13 01:38:43;;;;;;;0.47;0.30;;;;;;;23.04;85.84;95646.66;5093675;28;20559;-54
2023/07/13 01:41:12;;;;;;;0.50;0.40;;;;;;;22.98;84.74;95654.22;5093422;28;20468;-55
2023/07/13 01:43:41;;;;;;;1.07;0.47;;;;;;;23.06;83.60;95647.09;5093676;28;20565;-55
2023/07/13 01:46:09;;;;;;;0.40;0.30;;;;;;;23.01;84.53;95645.44;5093755;28;20497;-55
2023/07/13 01:48:50;;;;;;;0.50;0.30;;;;;;;22.51;85.53;95572.03;5093394;28;20769;-55
2023/07/13 01:51:20;;;;;;;0.40;0.30;;;;;;;22.44;85.25;95580.66;5092405;28;20481;-55
2023/07/13 01:53:51;;;;;;;0.60;0.50;;;;;;;22.90;86.17;95652.41;5092957;28;20436;-55
2023/07/13 01:56:19;;;;;;;0.50;0.30;;;;;;;22.94;86.50;95658.72;5092430;28;20440;-55
2023/07/13 01:58:48;;;;;;;1.53;0.30;;;;;;;22.93;86.13;95656.34;5093138;28;20471;-55
2023/07/13 02:01:17;;;;;;;0.50;0.30;;;;;;;22.92;86.77;95660.97;5092675;28;21029;-55
2023/07/13 02:03:46;;;;;;;0.57;0.40;;;;;;;22.82;88.06;95666.06;5093140;28;20498;-55
2023/07/13 02:06:14;;;;;;;0.80;0.70;;;;;;;21.93;95.92;95673.88;5092996;28;20441;-55
2023/07/13 02:08:43;;;;;;;4.97;0.40;;;;;;;22.23;93.46;95660.22;5093166;28;20468;-55
2023/07/13 02:11:13;;;;;;;2.40;0.70;;;;;;;22.48;91.84;95667.22;5092686;28;20868;-55
2023/07/13 02:13:41;;;;;;;0.60;0.30;;;;;;;22.47;93.51;95662.94;5092885;28;20444;-55
2023/07/13 02:16:10;;;;;;;0.47;0.30;;;;;;;22.49;92.91;95672.28;5093159;28;20437;-55
2023/07/13 02:18:39;;;;;;;0.50;0.50;;;;;;;22.18;94.10;95682.03;5092787;28;20439;-55
2023/07/13 02:21:08;;;;;;;0.80;0.40;;;;;;;22.14;95.91;95677.28;5092924;28;20444;-55
2023/07/13 02:23:36;;;;;;;1.63;0.40;;;;;;;22.31;96.22;95670.13;5092587;28;20929;-55
2023/07/13 02:26:05;;;;;;;0.53;0.53;;;;;;;22.20;95.86;95677.88;5092647;28;20928;-56
2023/07/13 02:28:34;;;;;;;0.60;0.50;;;;;;;22.19;95.12;95664.72;5092841;28;20813;-56
2023/07/13 02:31:08;;;;;;;0.40;0.30;;;;;;;22.40;93.47;95673.53;5092205;28;20484;-55
2023/07/13 02:33:37;;;;;;;0.50;0.37;;;;;;;22.40;92.39;95674.31;5092367;28;20459;-56
2023/07/13 02:36:06;;;;;;;0.50;0.40;;;;;;;22.35;92.71;95668.31;5092568;28;20904;-56
2023/07/13 02:38:35;;;;;;;0.50;0.50;;;;;;;22.48;92.87;95678.03;5092467;28;20491;-55
2023/07/13 02:41:04;;;;;;;0.73;0.50;;;;;;;22.33;97.06;95663.28;5092540;28;20441;-56
2023/07/13 02:43:34;;;;;;;0.70;0.53;;;;;;;22.37;95.62;95663.38;5091260;28;20443;-55
2023/07/13 02:46:06;;;;;;;0.53;0.40;;;;;;;22.39;94.33;95670.03;5092405;28;20524;-56
2023/07/13 02:48:37;;;;;;;0.50;0.37;;;;;;;22.47;92.94;95668.34;5092260;28;20929;-56
2023/07/13 02:51:05;;;;;;;1.87;0.40;;;;;;;22.36;94.17;95659.13;5091857;28;20490;-56
2023/07/13 02:53:35;;;;;;;0.60;0.30;;;;;;;22.48;92.45;95668.03;5092296;28;20436;-56
2023/07/13 02:56:05;;;;;;;3.17;0.33;;;;;;;22.46;91.29;95666.78;5091302;28;20953;-56
2023/07/13 02:58:36;;;;;;;6.43;0.50;;;;;;;22.46;89.77;95670.28;5092068;28;20533;-56
2023/07/13 03:01:08;;;;;;;0.53;0.50;;;;;;;22.19;89.13;95665.47;5091924;28;20506;-56
2023/07/13 03:03:37;;;;;;;0.50;0.30;;;;;;;22.25;90.55;95663.34;5092194;28;20440;-56
2023/07/13 03:06:08;;;;;;;0.50;0.40;;;;;;;22.35;91.00;95673.72;5091721;28;20946;-56
2023/07/13 03:08:37;;;;;;;0.40;0.40;;;;;;;22.40;90.58;95670.81;5092262;28;20532;-56
2023/07/13 03:11:07;;;;;;;1.13;0.67;;;;;;;22.40;90.26;95674.31;5092206;28;20480;-57
2023/07/13 03:13:38;;;;;;;2.30;0.40;;;;;;;22.40;89.27;95674.31;5092015;28;20447;-57
2023/07/13 03:16:06;;;;;;;0.40;0.30;;;;;;;22.19;91.28;95681.69;5092021;28;20440;-58
2023/07/13 03:18:36;;;;;;;4.00;1.07;;;;;;;22.18;90.80;95665.81;5091451;28;20441;-55
2023/07/13 03:21:05;;;;;;;0.93;0.50;;;;;;;21.80;91.74;95655.22;5091607;28;20501;-56
2023/07/13 03:23:34;;;;;;;0.50;0.47;;;;;;;21.27;92.22;95592.06;5091657;28;20475;-57
2023/07/13 03:26:05;;;;;;;0.50;0.30;;;;;;;21.99;92.95;95680.63;5065457;28;20433;-55
2023/07/13 03:28:33;;;;;;;0.60;0.40;;;;;;;22.07;100.00;95690.53;5091507;28;20483;-52
2023/07/13 03:31:06;;;;;;;0.60;0.53;;;;;;;22.40;100.00;95690.50;5091421;28;20471;-53
2023/07/13 03:33:35;;;;;;;0.50;0.30;;;;;;;22.51;100.00;95699.78;5091275;28;20947;-53
2023/07/13 03:36:04;;;;;;;0.63;0.47;;;;;;;22.24;100.00;95659.88;5091637;28;20859;-53
2023/07/13 03:38:33;;;;;;;0.63;0.63;;;;;;;22.38;100.00;95692.78;5091414;28;20433;-53
2023/07/13 03:41:01;;;;;;;0.80;0.80;;;;;;;22.39;100.00;95688.16;5091628;28;20444;-59
2023/07/13 03:43:30;;;;;;;0.50;0.33;;;;;;;22.46;100.00;95688.41;5090957;28;20443;-58
2023/07/13 03:45:58;;;;;;;0.50;0.50;;;;;;;22.59;100.00;95701.56;5090048;28;20463;-59
2023/07/13 03:48:28;;;;;;;0.60;0.47;;;;;;;22.72;100.00;95688.88;5089576;28;20440;-59
2023/07/13 03:50:56;;;;;;;0.70;0.70;;;;;;;22.86;100.00;95692.06;5089682;28;20529;-59
2023/07/13 03:53:25;;;;;;;0.70;0.70;;;;;;;22.94;100.00;95682.25;5089848;28;20467;-60
2023/07/13 03:55:53;;;;;;;0.50;0.40;;;;;;;23.00;100.00;95719.53;5090146;28;20494;-59
2023/07/13 03:58:28;;;;;;;0.70;0.70;;;;;;;22.64;100.00;95638.47;5092878;28;20424;-59
2023/07/13 04:00:57;;;;;;;0.73;0.73;;;;;;;22.70;95.67;95627.09;5095113;28;20792;-59
2023/07/13 04:03:28;;;;;;;0.50;0.30;;;;;;;23.11;97.61;95696.34;5095460;28;20466;-59
2023/07/13 04:05:59;;;;;;;0.73;0.67;;;;;;;23.06;100.00;95701.19;5095053;28;20490;-59
2023/07/13 04:08:28;;;;;;;0.67;0.57;;;;;;;23.16;100.00;95708.84;5095056;28;20444;-60
2023/07/13 04:10:57;;;;;;;3.80;0.90;;;;;;;23.01;100.00;95701.41;5094404;28;21006;-59
2023/07/13 04:13:26;;;;;;;1.40;0.80;;;;;;;23.18;100.00;95709.28;5095745;28;20472;-60
2023/07/13 04:15:55;;;;;;;0.67;0.60;;;;;;;22.77;100.00;95709.53;5094868;28;20459;-59
2023/07/13 04:18:23;;;;;;;0.80;0.80;;;;;;;22.81;100.00;95705.00;5095043;28;20444;-59
2023/07/13 04:20:52;;;;;;;0.70;0.60;;;;;;;23.16;100.00;95706.94;5095059;28;21009;-59
2023/07/13 04:23:22;;;;;;;0.70;0.50;;;;;;;23.25;100.00;95701.41;5094883;28;20497;-59
2023/07/13 04:25:53;;;;;;;3.63;0.97;;;;;;;23.29;100.00;95703.09;5094659;28;20441;-59
2023/07/13 04:28:22;;;;;;;1.70;1.60;;;;;;;23.31;100.00;95702.72;5094921;28;20436;-59
2023/07/13 04:30:51;;;;;;;0.70;0.70;;;;;;;23.30;100.00;95703.88;5094398;28;20464;-59
2023/07/13 04:33:22;;;;;;;0.50;0.40;;;;;;;23.28;100.00;95690.69;5094143;28;20493;-58
2023/07/13 04:35:56;;;;;;;0.70;0.70;;;;;;;23.49;100.00;95706.00;5068846;28;20432;-59
2023/07/13 04:38:29;;;;;;;1.43;0.60;;;;;;;23.56;100.00;95712.41;5093342;28;20540;-57
2023/07/13 04:41:00;;;;;;;0.90;0.70;;;;;;;23.61;94.29;95714.88;5093772;28;20449;-58
2023/07/13 04:43:29;;;;;;;0.50;0.40;;;;;;;23.57;92.66;95703.19;5093550;28;20475;-57
2023/07/13 04:46:04;;;;;;;2.00;0.60;;;;;;;23.58;100.00;95682.31;5094645;28;20443;-57
2023/07/13 04:48:32;;;;;;;0.83;0.83;;;;;;;23.77;99.64;95704.13;5094232;28;20443;-57
2023/07/13 04:51:01;;;;;;;0.50;0.40;;;;;;;23.81;90.15;95702.28;5093975;28;20504;-57
2023/07/13 04:53:33;;;;;;;0.60;0.30;;;;;;;23.84;94.77;95705.13;5093826;28;20436;-56
2023/07/13 04:56:02;;;;;;;0.87;0.60;;;;;;;23.93;95.83;95704.97;5094738;28;20915;-56
2023/07/13 04:58:30;;;;;;;0.60;0.60;;;;;;;24.10;96.89;95703.91;5094324;28;20440;-56
2023/07/13 05:01:01;;;;;;;1.63;1.10;;;;;;;23.93;94.83;95691.44;5093957;28;20921;-56
2023/07/13 05:03:31;;;;;;;4.70;1.63;;;;;;;23.40;92.47;95708.06;5094567;28;20443;-56
2023/07/13 05:06:01;;;;;;;1.57;1.47;;;;;;;22.88;96.10;95716.84;5093523;28;20441;-56
2023/07/13 05:08:31;;;;;;;3.23;1.20;;;;;;;22.91;100.00;95709.97;5093068;28;20494;-55
2023/07/13 05:11:01;;;;;;;2.70;2.50;;;;;;;22.74;100.00;95705.56;5094054;28;20437;-55
2023/07/13 05:13:29;;;;;;;2.90;2.60;;;;;;;22.52;100.00;95717.53;5093984;28;20987;-55
2023/07/13 05:15:59;;;;;;;2.67;2.00;;;;;;;22.49;100.00;95722.84;5093672;28;20437;-55
2023/07/13 05:18:28;;;;;;;0.83;0.83;;;;;;;22.94;99.09;95717.41;5094098;28;20520;-55
2023/07/13 05:21:01;;;;;;;2.90;2.30;;;;;;;22.50;97.28;95651.47;5093981;28;20441;-55
2023/07/13 05:23:32;;;;;;;1.37;1.27;;;;;;;23.20;96.96;95715.91;5094109;28;20497;-55
2023/07/13 05:26:01;;;;;;;2.00;1.90;;;;;;;23.20;94.92;95717.84;5094021;28;20429;-54
2023/07/13 05:28:32;;;;;;;1.27;1.20;;;;;;;23.57;93.98;95713.22;5093906;28;20437;-54
2023/07/13 05:31:00;;;;;;;0.50;0.47;;;;;;;24.12;93.21;95717.91;5093392;28;20441;-54
2023/07/13 05:33:29;;;;;;;1.13;0.83;;;;;;;24.37;89.35;95703.09;5093598;28;20532;-54
2023/07/13 05:35:58;;;;;;;1.00;1.00;;;;;;;24.32;87.71;95709.56;5093735;28;20444;-54
2023/07/13 05:38:26;;;;;;;1.27;0.50;;;;;;;24.86;87.50;95714.44;5093543;28;20448;-53
2023/07/13 05:40:57;;;;;;;1.03;0.70;;;;;;;24.77;82.03;95717.28;5084122;28;20506;-53
2023/07/13 05:43:26;;;;;;;0.93;0.90;;;;;;;24.48;80.64;95731.28;5090029;28;20468;-52
2023/07/13 05:45:56;;;;;;;3.13;1.30;;;;;;;24.92;84.38;95718.50;5093459;28;20566;-53
2023/07/13 05:48:25;;;;;;;3.63;1.00;;;;;;;24.69;81.38;95683.03;5093363;28;21013;-53
2023/07/13 05:50:53;;;;;;;1.43;1.23;;;;;;;24.67;81.05;95717.81;5093825;28;20437;-53
2023/07/13 05:53:22;;;;;;;1.43;1.33;;;;;;;24.52;82.92;95716.66;5093293;28;20581;-52
2023/07/13 05:55:52;;;;;;;31.00;2.03;;;;;;;24.59;84.99;95706.00;5093164;28;20436;-52
2023/07/13 05:58:23;;;;;;;4.00;2.63;;;;;;;24.70;86.85;95714.41;5092628;28;20468;-52
2023/07/13 06:01:00;;;;;;;4.50;1.37;;;;;;;25.12;85.15;95706.56;5093047;28;20432;-52
2023/07/13 06:03:29;;;;;;;1.33;1.23;;;;;;;25.35;83.44;95712.13;5092966;28;21021;-52
2023/07/13 06:05:57;;;;;;;0.80;0.80;;;;;;;25.49;82.00;95677.97;5092695;28;20437;-52
2023/07/13 06:08:25;;;;;;;2.77;1.50;;;;;;;25.91;79.06;95712.59;5092885;28;20474;-52
2023/07/13 06:10:54;;;;;;;1.53;1.43;;;;;;;25.75;80.97;95707.22;5091914;28;20494;-52
2023/07/13 06:13:23;;;;;;;1.30;1.10;;;;;;;26.10;78.28;95704.44;5092793;28;20479;-52
2023/07/13 06:15:52;;;;;;;1.10;1.10;;;;;;;26.55;77.03;95707.25;5092895;28;20433;-52
2023/07/13 06:18:20;;;;;;;0.70;0.70;;;;;;;26.61;76.09;95710.47;5091945;28;20442;-52
2023/07/13 06:20:48;;;;;;;1.93;1.83;;;;;;;26.37;75.50;95709.66;5091821;28;20889;-52
2023/07/13 06:23:17;;;;;;;1.93;1.83;;;;;;;26.15;75.79;95706.91;5092108;28;20480;-52
2023/07/13 06:25:45;;;;;;;0.67;0.67;;;;;;;27.07;74.10;95695.72;5092745;28;20440;-52
2023/07/13 06:28:13;;;;;;;1.13;1.13;;;;;;;27.64;71.61;95691.94;5092594;28;20440;-52
2023/07/13 06:30:43;;;;;;;0.90;0.90;;;;;;;27.76;70.71;95699.06;5091209;28;20439;-52
2023/07/13 06:33:11;;;;;;;1.33;1.23;;;;;;;27.40;70.90;95690.41;5091898;28;20483;-53
2023/07/13 06:35:40;;;;;;;0.80;0.77;;;;;;;27.86;69.93;95687.53;5092253;28;20520;-53
2023/07/13 06:38:08;;;;;;;3.27;3.07;;;;;;;27.00;70.71;95687.47;5092051;28;20440;-53
2023/07/13 06:40:36;;;;;;;1.50;1.40;;;;;;;27.47;71.78;95687.03;5092440;28;20493;-53
2023/07/13 06:43:04;;;;;;;2.30;0.70;;;;;;;27.75;68.97;95681.19;5092287;28;20876;-53
2023/07/13 06:45:36;;;;;;;1.27;0.90;;;;;;;27.95;68.60;95675.22;5092413;28;20437;-53
2023/07/13 06:48:07;;;;;;;0.80;0.80;;;;;;;28.34;66.40;95671.00;5092308;28;20952;-53
2023/07/13 06:50:35;;;;;;;0.90;0.80;;;;;;;28.67;65.70;95666.66;5092328;28;20451;-53
2023/07/13 06:53:04;;;;;;;0.87;0.87;;;;;;;29.17;64.52;95678.78;5092747;28;20502;-53
2023/07/13 06:55:32;;;;;;;4.50;1.33;;;;;;;29.16;63.93;95666.28;5091272;28;20489;-53
2023/07/13 06:58:00;;;;;;;1.50;1.43;;;;;;;29.07;63.57;95657.66;5091641;28;20444;-53
2023/07/13 07:00:29;;;;;;;6.73;3.13;;;;;;;29.11;60.79;95652.97;5091562;28;20874;-53
2023/07/13 07:02:57;;;;;;;1.47;1.30;;;;;;;29.08;61.59;95661.91;5091997;28;20437;-53
2023/07/13 07:05:27;;;;;;;0.80;0.77;;;;;;;29.86;59.64;95663.22;5091828;28;20889;-53
2023/07/13 07:07:56;;;;;;;2.30;2.03;;;;;;;29.95;58.81;95667.19;5092058;28;20440;-54
2023/07/13 07:10:25;;;;;;;0.73;0.73;;;;;;;30.21;57.64;95666.06;5092104;28;20475;-54
2023/07/13 07:12:53;;;;;;;3.00;0.87;;;;;;;30.62;56.75;95659.16;5091601;28;20579;-54
2023/07/13 07:15:21;;;;;;;1.37;1.30;;;;;;;30.38;56.37;95654.44;5080119;28;20490;-55
2023/07/13 07:17:50;;;;;;;1.30;1.20;;;;;;;30.55;56.21;95659.16;5090829;28;20524;-55
2023/07/13 07:20:18;;;;;;;2.33;1.67;;;;;;;30.32;56.15;95655.94;5091451;28;20448;-54
2023/07/13 07:22:48;;;;;;;1.47;1.37;;;;;;;30.98;56.14;95659.97;5092111;28;20442;-54
2023/07/13 07:25:17;;;;;;;0.40;0.40;;;;;;;31.19;54.58;95646.28;5091225;28;20437;-55
2023/07/13 07:27:46;;;;;;;1.03;1.00;;;;;;;31.32;53.74;95647.41;5078877;28;21129;-55
2023/07/13 07:30:17;;;;;;;3.17;3.00;;;;;;;31.11;53.84;95660.38;5091669;28;20486;-55
2023/07/13 07:32:48;;;;;;;0.90;0.90;;;;;;;31.02;52.90;95651.78;5082512;28;20465;-55
2023/07/13 07:35:19;;;;;;;0.97;0.60;;;;;;;31.50;56.25;95636.44;5087386;28;20451;-55
2023/07/13 07:37:49;;;;;;;1.20;1.10;;;;;;;31.49;52.83;95645.06;5091469;28;20514;-55
2023/07/13 07:40:19;;;;;;;1.30;0.87;;;;;;;31.48;52.08;95643.50;5091238;28;20442;-55
2023/07/13 07:42:50;;;;;;;3.27;0.93;;;;;;;31.95;50.46;95645.69;5091188;28;20501;-55
2023/07/13 07:45:18;;;;;;;0.50;0.30;;;;;;;32.65;48.13;95641.81;5092021;28;20493;-55
2023/07/13 07:47:47;;;;;;;1.13;1.13;;;;;;;32.41;49.81;95645.50;5091764;28;20447;-55
2023/07/13 07:50:15;;;;;;;1.60;1.50;;;;;;;32.75;49.83;95637.44;5091437;28;20440;-54
2023/07/13 07:52:44;;;;;;;0.57;0.57;;;;;;;32.93;48.57;95638.06;5090079;28;20467;-54
2023/07/13 07:55:14;;;;;;;0.70;0.70;;;;;;;32.93;49.65;95638.06;5091760;28;20501;-54
2023/07/13 07:57:45;;;;;;;1.00;1.00;;;;;;;33.20;48.76;95644.53;5091479;28;20523;-54
2023/07/13 08:00:17;;;;;;;2.90;1.40;;;;;;;32.90;47.19;95645.16;5091475;28;20481;-54
2023/07/13 08:02:49;;;;;;;2.40;1.73;;;;;;;32.67;47.66;95644.94;5091799;28;20477;-53
2023/07/13 08:05:20;;;;;;;1.10;0.70;;;;;;;33.30;48.84;95642.84;5091650;28;20440;-53
2023/07/13 08:08:06;;;;;;;2.03;1.23;;;;;;;33.33;47.08;95645.56;5091159;28;20438;-53
2023/07/13 08:10:38;;;;;;;1.53;1.43;;;;;;;33.46;45.57;95637.59;5091805;28;20443;-53
2023/07/13 08:13:06;;;;;;;0.83;0.83;;;;;;;34.09;46.16;95647.13;5065538;28;20479;-52
2023/07/13 08:15:40;;;;;;;0.83;0.83;;;;;;;34.13;45.23;95636.88;5091153;28;20439;-53
2023/07/13 08:18:09;;;;;;;1.23;0.50;;;;;;;34.58;47.00;95640.97;5091239;28;20443;-53
2023/07/13 08:20:38;;;;;;;1.40;0.87;;;;;;;34.12;46.06;95618.78;5091304;28;20486;-52
2023/07/13 08:23:08;;;;;;;10.63;1.53;;;;;;;33.47;46.28;95628.94;5091362;28;20466;-52
2023/07/13 08:25:38;;;;;;;0.80;0.60;;;;;;;34.85;45.36;95630.72;5091125;28;20952;-52
2023/07/13 08:28:06;;;;;;;1.00;1.00;;;;;;;34.71;43.96;95622.66;5091570;28;20468;-53
2023/07/13 08:30:36;;;;;;;1.73;1.63;;;;;;;34.48;44.59;95619.84;5090915;28;20475;-52
2023/07/13 08:33:04;;;;;;;1.53;1.43;;;;;;;34.42;44.34;95621.50;5091078;28;20472;-52
2023/07/13 08:35:33;;;;;;;0.70;0.53;;;;;;;34.94;45.58;95622.69;5090896;28;20432;-53
2023/07/13 08:38:01;;;;;;;0.40;0.30;;;;;;;35.54;44.58;95620.91;5091188;28;20436;-54
2023/07/13 08:40:29;;;;;;;1.60;1.00;;;;;;;35.61;45.76;95615.22;5090846;28;20475;-55
2023/07/13 08:43:00;;;;;;;1.57;1.47;;;;;;;35.20;42.07;95599.03;5091673;28;20436;-54
2023/07/13 08:45:35;;;;;;;1.13;1.13;;;;;;;35.17;41.60;95610.13;5094630;28;20594;-53
2023/07/13 08:48:08;;;;;;;1.93;1.83;;;;;;;34.93;41.85;95610.13;5094283;28;20233;-53
2023/07/13 08:50:46;;;;;;;1.53;1.43;;;;;;;35.47;42.85;95604.47;5094513;28;20243;-53
2023/07/13 08:53:35;;;;;;;4.10;0.80;;;;;;;36.00;41.74;95603.44;5094184;28;20365;-53
2023/07/13 08:56:05;;;;;;;6.60;1.93;;;;;;;36.06;42.38;95605.25;5093887;28;20197;-53
2023/07/13 08:58:35;;;;;;;0.63;0.60;;;;;;;36.04;41.38;95596.66;5081978;28;20233;-53
2023/07/13 09:01:17;;;;;;;5.00;0.70;;;;;;;37.09;39.31;95592.63;5094465;28;20196;-53
2023/07/13 09:03:54;;;;;;;2.50;0.80;;;;;;;37.43;37.77;95594.91;5094168;28;20197;-53
2023/07/13 09:06:28;;;;;;;0.37;0.33;;;;;;;37.08;37.59;95593.06;5094102;28;20220;-54
2023/07/13 09:09:02;;;;;;;0.60;0.40;;;;;;;37.16;38.19;95581.41;5094610;28;20197;-54
2023/07/13 09:11:42;;;;;;;1.10;1.03;;;;;;;36.37;39.04;95585.66;5094662;28;20251;-55
2023/07/13 09:14:40;;;;;;;1.97;0.70;;;;;;;36.54;38.83;95579.75;5094009;28;20220;-56
2023/07/13 09:17:18;;;;;;;0.60;0.40;;;;;;;37.51;38.88;95577.69;5094035;28;20618;-56
2023/07/13 09:19:51;;;;;;;1.20;1.00;;;;;;;37.44;37.98;95575.13;5094254;28;20200;-56
2023/07/13 09:22:22;;;;;;;0.57;0.55;;;;;;;37.58;37.73;95560.13;5093558;28;20256;-59
2023/07/13 09:24:57;;;;;;;7.80;0.70;;;;;;;37.50;37.64;95567.84;5093703;28;20189;-61
2023/07/13 09:27:31;;;;;;;5.75;0.95;;;;;;;37.22;37.10;95559.50;5092878;28;20193;-61
2023/07/13 09:30:22;;;;;;;14.15;1.23;;;;;;;37.30;36.71;95556.13;5093408;28;20232;-61
2023/07/13 09:32:53;;;;;;;0.80;0.63;;;;;;;36.97;37.91;95559.38;5093790;28;20204;-60
2023/07/13 09:35:28;;;;;;;0.88;0.88;;;;;;;37.06;37.72;95541.00;5093390;28;20209;-60
2023/07/13 09:38:00;;;;;;;0.68;0.68;;;;;;;37.22;38.13;95546.47;5094021;28;20197;-61
2023/07/13 09:40:41;;;;;;;0.73;0.73;;;;;;;37.29;38.89;95535.22;5093458;28;20193;-61
2023/07/13 09:43:14;;;;;;;1.73;0.88;;;;;;;37.87;38.67;95526.91;5092932;28;20206;-61
2023/07/13 09:45:47;;;;;;;0.90;0.82;;;;;;;37.65;38.15;95525.97;5093690;28;20194;-61
2023/07/13 09:48:17;;;;;;;0.60;0.43;;;;;;;37.91;37.92;95531.13;5093276;28;20610;-61
2023/07/13 09:50:45;;;;;;;2.45;1.15;;;;;;;38.19;38.17;95521.16;5093598;28;20252;-60
2023/07/13 09:53:15;;;;;;;0.57;0.57;;;;;;;38.62;37.25;95526.13;5093462;28;20193;-61
2023/07/13 09:55:45;;;;;;;0.60;0.60;;;;;;;37.83;37.21;95526.97;5092484;28;20221;-61
2023/07/13 09:58:19;;;;;;;0.73;0.73;;;;;;;38.04;37.43;95528.34;5092791;28;20621;-62
2023/07/13 10:00:58;;;;;;;1.70;1.60;;;;;;;37.04;38.30;95529.56;5093119;28;20229;-62
2023/07/13 10:03:30;;;;;;;0.77;0.77;;;;;;;37.59;38.44;95520.19;5080536;28;20233;-62
2023/07/13 10:06:12;;;;;;;0.80;0.80;;;;;;;38.14;38.21;95505.09;5092941;28;20198;-61
2023/07/13 10:08:40;;;;;;;1.55;1.08;;;;;;;37.92;37.98;95523.59;5093053;28;20227;-61
2023/07/13 10:11:13;;;;;;;0.60;0.60;;;;;;;38.85;37.59;95511.16;5093303;28;20217;-62
2023/07/13 10:13:46;;;;;;;0.73;0.40;;;;;;;39.12;39.22;95509.38;5092588;28;20193;-61
2023/07/13 10:16:16;;;;;;;0.60;0.60;;;;;;;38.69;37.16;95451.88;5092997;28;20645;-61
2023/07/13 10:18:47;;;;;;;0.40;0.40;;;;;;;39.29;36.89;95482.28;5092918;28;20285;-61
2023/07/13 10:21:19;;;;;;;0.77;0.63;;;;;;;39.86;37.18;95497.59;5092941;28;20198;-62
2023/07/13 10:24:11;;;;;;;1.35;0.75;;;;;;;39.96;36.92;95490.88;5092594;28;20194;-61
2023/07/13 10:26:47;;;;;;;0.50;0.50;;;;;;;39.70;37.64;95451.41;5092495;28;20654;-61
2023/07/13 10:29:18;;;;;;;0.50;0.50;;;;;;;39.73;38.88;95488.59;5092370;28;20197;-61
2023/07/13 10:31:47;;;;;;;1.00;0.68;;;;;;;39.68;38.22;95481.63;5092377;28;20201;-61
2023/07/13 10:34:17;;;;;;;0.88;0.88;;;;;;;39.67;38.42;95476.56;5092998;28;20778;-61
2023/07/13 10:36:48;;;;;;;0.60;0.60;;;;;;;39.71;36.08;95471.63;5091227;28;20196;-61
2023/07/13 10:39:20;;;;;;;0.80;0.70;;;;;;;40.06;35.69;95461.16;5092622;28;20236;-61
2023/07/13 10:41:54;;;;;;;0.50;0.50;;;;;;;40.11;34.67;95463.34;5091993;28;20258;-61
2023/07/13 10:44:28;;;;;;;0.70;0.68;;;;;;;40.31;34.54;95452.59;5092594;28;20205;-61
2023/07/13 10:47:01;;;;;;;4.13;0.88;;;;;;;40.10;34.85;95456.25;5092149;28;20289;-61
2023/07/13 10:49:33;;;;;;;0.50;0.47;;;;;;;40.08;36.28;95451.13;5092153;28;20194;-61
2023/07/13 10:52:02;;;;;;;1.35;0.95;;;;;;;39.59;35.75;95459.38;5091606;28;20201;-61
2023/07/13 10:54:33;;;;;;;0.80;0.80;;;;;;;39.89;36.90;95446.72;5092198;28;20246;-61
2023/07/13 10:57:18;;;;;;;0.85;0.85;;;;;;;40.01;37.91;95443.06;5066657;28;20194;-61
2023/07/13 11:00:10;;;;;;;0.73;0.73;;;;;;;40.34;35.78;95443.34;5091772;28;20233;-61
2023/07/13 11:02:44;;;;;;;0.50;0.38;;;;;;;40.72;36.28;95440.97;5091680;28;20209;-61
2023/07/13 11:05:28;;;;;;;1.27;1.17;;;;;;;39.80;37.17;95435.56;5092669;28;20228;-61
2023/07/13 11:08:04;;;;;;;3.42;1.20;;;;;;;39.21;37.84;95431.09;5091088;28;20696;-61
2023/07/13 11:10:50;;;;;;;2.40;0.90;;;;;;;38.88;38.33;95427.88;5092261;28;20233;-61
2023/07/13 11:13:43;;;;;;;1.40;1.30;;;;;;;39.08;37.67;95428.34;5093497;28;20266;-61
2023/07/13 11:16:33;;;;;;;1.65;0.90;;;;;;;39.48;37.67;95422.13;5091890;28;20217;-61
2023/07/13 11:19:40;;;;;;;0.68;0.57;;;;;;;40.42;37.16;95417.59;5091731;28;20246;-61
2023/07/13 11:22:22;;;;;;;0.50;0.50;;;;;;;40.22;36.48;95419.25;5091341;28;20204;-61
2023/07/13 11:24:58;;;;;;;0.93;0.75;;;;;;;40.92;35.98;95409.94;5091907;28;20195;-60
2023/07/13 11:27:42;;;;;;;1.13;0.70;;;;;;;40.76;35.76;95415.81;5091768;28;20204;-60
2023/07/13 11:30:25;;;;;;;0.70;0.63;;;;;;;39.87;36.35;95416.63;5091168;28;20280;-60
2023/07/13 11:33:06;;;;;;;0.60;0.60;;;;;;;40.55;35.55;95414.72;5091597;28;20251;-61
2023/07/13 11:35:41;;;;;;;0.38;0.38;;;;;;;41.24;35.19;95411.31;5091808;28;20216;-61
2023/07/13 11:38:17;;;;;;;3.55;1.42;;;;;;;40.55;33.82;95409.94;5091845;28;20188;-62
2023/07/13 11:40:48;;;;;;;0.50;0.50;;;;;;;40.21;35.56;95398.25;5067574;28;20197;-61
2023/07/13 11:43:24;;;;;;;0.77;0.77;;;;;;;40.76;35.70;95405.44;5091311;28;20196;-62
2023/07/13 11:45:52;;;;;;;0.55;0.55;;;;;;;39.79;35.33;95393.19;5092085;28;20197;-61
2023/07/13 11:48:23;;;;;;;1.40;1.30;;;;;;;39.85;34.67;95388.56;5091967;28;20190;-61
2023/07/13 11:51:00;;;;;;;0.90;0.70;;;;;;;39.94;35.04;95382.28;5091900;28;20750;-62